M I D A S
Marine Information and Data Acquisition System
Tripno 52 of the Zeeleeuw from 2001-05-28 09:45:00 to 2001-05-28 18:25:00
Back to CruiseResearch ActivitiesStationsMapUnderway DataData graphs

EquipmentUnitsComment
TimeDGPSUTC
LatitudeDGPSDM.mWGS84
LongitudeDGPSDM.mWGS84
HeadingGyrodeg 
SOGDGPSknotsSpeed over ground
COGDGPSdegCourse over ground
DepthEcho soundermeters200 kHz
Missing or incorrect values are displayed as -999
Navigation data collected by the RV Zeeleeuw from 2001-05-28 09:45:00 to 2001-05-28 18:25:00
Time Latitude Longitude Heading SOG COG Depth
2001-05-28 09:46:05 51°24.717 3°9.468 267.8 14.2 269.6 5
2001-05-28 09:47:05 51°24.732 3°9.096 282.2 13.9 283.3 4.8
2001-05-28 09:48:05 51°24.766 3°8.731 274.8 14 276.3 4.7
2001-05-28 09:49:05 51°24.801 3°8.365 284.5 13.7 287.4 4.6
2001-05-28 09:50:05 51°24.885 3°8.027 282.7 13.6 284.6 4.4
2001-05-28 09:51:05 51°24.964 3°7.686 288.8 13.6 290 4.3
2001-05-28 09:52:05 51°25.065 3°7.363 299 13.5 300.3 4.1
2001-05-28 09:53:05 51°25.219 3°7.108 321.2 13.3 321.5 4.3
2001-05-28 09:54:05 51°25.405 3°6.915 343.2 13.4 343.9 5.1
2001-05-28 09:55:05 51°25.619 3°6.81 341.5 13.4 341.5 5.6
2001-05-28 09:56:05 51°25.827 3°6.685 343.5 13.1 346.3 5.6
2001-05-28 09:57:05 51°26.038 3°6.574 345.3 13.3 348.7 5.4
2001-05-28 09:58:05 51°26.247 3°6.479 339.8 13.5 338.4 5.6
2001-05-28 09:59:05 51°26.457 3°6.348 338.2 13.7 336 6.3
2001-05-28 10:00:05 51°26.663 3°6.225 343.3 13.5 341.9 6.7
2001-05-28 10:01:05 51°26.867 3°6.088 338.8 13.4 339.3 6.8
2001-05-28 10:02:05 51°27.082 3°5.984 347.5 13.4 346.2 7.7
2001-05-28 10:03:05 51°27.3 3°5.911 347 13.6 346.3 8.5
2001-05-28 10:04:05 51°27.519 3°5.851 353.2 13.4 353.8 9.1
2001-05-28 10:05:05 51°27.74 3°5.823 6.2 13.2 4.9 10
2001-05-28 10:06:05 51°27.904 3°6.01 60.7 12.7 65.1 10.3
2001-05-28 10:07:05 51°27.967 3°6.331 68 12.5 70.5 10.2
2001-05-28 10:08:05 51°28.033 3°6.651 67.3 12.5 71 10.3
2001-05-28 10:09:05 51°28.104 3°6.972 63.3 12.6 66.6 10.2
2001-05-28 10:10:05 51°28.182 3°7.297 63.7 13.1 65.6 10.1
2001-05-28 10:11:05 51°28.274 3°7.615 65 13.3 66.3 9.8
2001-05-28 10:12:05 51°28.367 3°7.928 62.5 13 64.8 9.4
2001-05-28 10:13:05 51°28.44 3°8.256 69.2 12.9 71.4 8.4
2001-05-28 10:14:05 51°28.515 3°8.576 68 12.9 70.1 9.5
2001-05-28 10:15:05 51°28.588 3°8.907 69.2 12.8 71 10.5
2001-05-28 10:16:05 51°28.706 3°9.199 49 13.2 47.4 10.3
2001-05-28 10:17:05 51°28.9 3°9.358 13.7 13.3 12.6 10.5
2001-05-28 10:18:05 51°29.105 3°9.285 329.7 13.3 326 10.5
2001-05-28 10:19:05 51°29.248 3°9.03 310.3 13.3 309.8 11.2
2001-05-28 10:20:05 51°29.388 3°8.755 306.8 13.4 306.3 11.2
2001-05-28 10:21:05 51°29.519 3°8.466 305.8 13.3 305 11.9
2001-05-28 10:22:05 51°29.64 3°8.17 304.2 13.2 305 12.3
2001-05-28 10:23:05 51°29.752 3°7.865 298.8 13 298.3 13.4
2001-05-28 10:24:05 51°29.858 3°7.553 299.3 13.5 298.2 14.5
2001-05-28 10:25:05 51°29.964 3°7.239 299 13.8 298.5 16.1
2001-05-28 10:26:05 51°30.066 3°6.92 296.5 13.4 294.9 17.6
2001-05-28 10:27:05 51°30.168 3°6.605 292.8 13.4 292.6 18.4
2001-05-28 10:28:05 51°30.265 3°6.288 297 13.5 295.2 19.8
2001-05-28 10:29:06 51°30.368 3°5.961 295.2 13.5 292.9 19.5
2001-05-28 10:30:05 51°30.467 3°5.643 297.8 13.5 295.8 18.6
2001-05-28 10:31:05 51°30.567 3°5.321 299.3 13.4 298 18.4
2001-05-28 10:32:05 51°30.671 3°5 299.3 13.7 297.4 19.6
2001-05-28 10:33:06 51°30.772 3°4.669 297.7 13.7 295.7 -999
2001-05-28 10:34:06 51°30.876 3°4.348 298.5 13.6 296.8 -999
2001-05-28 10:35:06 51°30.981 3°4.029 301.2 13.5 299 -999
2001-05-28 10:36:06 51°31.087 3°3.712 300.7 13.4 297.7 -999
2001-05-28 10:37:06 51°31.196 3°3.397 298.5 13.6 298.3 -999
2001-05-28 10:38:06 51°31.299 3°3.078 299 13.4 297.4 -999
2001-05-28 10:39:06 51°31.403 3°2.758 298.2 13.7 296.4 -999
2001-05-28 10:40:06 51°31.504 3°2.429 297.8 13.6 294.7 -999
2001-05-28 10:41:06 51°31.604 3°2.098 297.7 13.8 295.7 -999
2001-05-28 10:42:06 51°31.702 3°1.764 300.8 13.7 298.4 -999
2001-05-28 10:43:05 51°31.769 3°1.425 270.5 13.5 270.2 22.6
2001-05-28 10:44:05 51°31.692 3°1.088 238.3 13.8 241.4 23
2001-05-28 10:45:05 51°31.587 3°0.764 236.7 13.9 237 20.5
2001-05-28 10:46:05 51°31.461 3°0.454 236.2 14.1 238.7 22
2001-05-28 10:47:05 51°31.322 3°0.151 227.7 14.1 231.1 23.2
2001-05-28 10:48:05 51°31.165 2°59.881 222.2 13.6 224.8 23.1
2001-05-28 10:49:05 51°31.006 2°59.614 222.3 14 225.4 23.2
2001-05-28 10:50:05 51°30.838 2°59.354 220.8 14 224.4 23.2
2001-05-28 10:51:06 51°30.666 2°59.09 219.3 14 221.5 23
2001-05-28 10:52:05 51°30.5 2°58.835 220.5 14.2 223.1 23
2001-05-28 10:53:05 51°30.334 2°58.573 220.3 14.1 223.7 22.6
2001-05-28 10:54:05 51°30.163 2°58.316 216.5 14.1 220.1 22.7
2001-05-28 10:55:05 51°29.982 2°58.072 215.8 14.2 219.1 21.5
2001-05-28 10:56:05 51°29.804 2°57.822 217.2 14.3 221 20.5
2001-05-28 10:57:05 51°29.629 2°57.566 217.3 14.2 219.9 20.5
2001-05-28 10:58:05 51°29.448 2°57.329 218.5 14.2 222.2 20
2001-05-28 10:59:05 51°29.268 2°57.083 217.3 14.3 220.7 20.3
2001-05-28 11:00:05 51°29.088 2°56.834 214 13.7 215.4 18.6
2001-05-28 11:01:05 51°28.908 2°56.598 218.8 14.2 221.5 18.5
2001-05-28 11:02:05 51°28.73 2°56.345 216.5 14.3 219.8 20.2
2001-05-28 11:03:05 51°28.548 2°56.092 216.2 14.4 220.6 20.7
2001-05-28 11:04:05 51°28.367 2°55.848 217.7 14.4 221.2 22
2001-05-28 11:05:05 51°28.186 2°55.597 216 14.3 219 22.1
2001-05-28 11:06:05 51°28.009 2°55.342 227 14.4 230.5 21.6
2001-05-28 11:07:05 51°27.878 2°55.018 235.7 14.5 237.5 23.4
2001-05-28 11:08:05 51°27.728 2°54.716 228.7 14.3 232.2 22.8
2001-05-28 11:09:06 51°27.612 2°54.381 252.7 14.2 254.6 22.8
2001-05-28 11:10:05 51°27.664 2°54.059 317.2 12.7 318.3 17.6
2001-05-28 11:11:05 51°27.825 2°53.822 321.2 13.2 319 15.5
2001-05-28 11:12:05 51°27.985 2°53.59 317.5 13.1 317.5 16
2001-05-28 11:13:05 51°28.149 2°53.368 326.3 12.8 325.5 16.5
2001-05-28 11:14:05 51°28.334 2°53.191 330 13.1 326.1 19.8
2001-05-28 11:15:05 51°28.511 2°52.993 330.7 12.7 325.6 19.9
2001-05-28 11:16:05 51°28.705 2°52.851 340 12.7 337.1 21.2
2001-05-28 11:17:05 51°28.896 2°52.686 332.3 13.4 330.7 23.2
2001-05-28 11:18:05 51°29.091 2°52.536 338.5 12.9 335.8 24.9
2001-05-28 11:19:05 51°29.264 2°52.331 312.7 13.5 310.8 25.6
2001-05-28 11:20:05 51°29.353 2°52.001 284.2 13.8 282.1 26.2
2001-05-28 11:21:05 51°29.336 2°51.639 246.5 14.3 250 25.3
2001-05-28 11:22:05 51°29.243 2°51.289 245.7 14.4 249.4 24.2
2001-05-28 11:23:05 51°29.148 2°50.941 240.7 14.2 244.1 24.1
2001-05-28 11:24:05 51°29.048 2°50.602 246.8 14.2 248.9 23.6
2001-05-28 11:25:05 51°28.971 2°50.244 246.2 14.1 249 22
2001-05-28 11:26:05 51°28.881 2°49.893 245.5 14.3 249 23.4
2001-05-28 11:27:06 51°28.794 2°49.534 239 14.4 241.5 24.3
2001-05-28 11:28:05 51°28.641 2°49.256 214.3 14.2 220.1 25
2001-05-28 11:29:05 51°28.439 2°49.085 189.2 13.6 196.3 28.3
2001-05-28 11:30:05 51°28.214 2°49.035 175.2 13.8 184.4 22.2
2001-05-28 11:31:05 51°27.986 2°49.016 172.3 13.9 179.9 21.9
2001-05-28 11:32:05 51°27.769 2°49.099 143.7 13.4 158 21
2001-05-28 11:33:05 51°27.555 2°49.223 156.3 13.8 168.9 21.6
2001-05-28 11:34:05 51°27.338 2°49.328 156.8 14 165.4 20.5
2001-05-28 11:35:05 51°27.114 2°49.414 158.3 14.1 166 20.3
2001-05-28 11:36:05 51°26.908 2°49.568 144 13.9 155.5 17.5
2001-05-28 11:37:05 51°26.703 2°49.695 152.3 10.8 162.8 14.7
2001-05-28 11:38:05 51°26.576 2°49.748 154.7 5.8 163.4 19.1
2001-05-28 11:39:05 51°26.506 2°49.775 157.3 3.3 167.2 18.9
2001-05-28 11:40:05 51°26.461 2°49.785 159.2 2.4 161.9 18.6
2001-05-28 11:41:05 51°26.43 2°49.79 163 1.6 176.6 19.2
2001-05-28 11:42:06 51°26.407 2°49.79 162.5 1.3 188 19.3
2001-05-28 11:43:05 51°26.389 2°49.79 164.7 1 179.8 18.6
2001-05-28 11:44:05 51°26.377 2°49.792 156.7 0.9 182.9 18.6
2001-05-28 11:45:06 51°26.365 2°49.794 153.7 0.8 207.7 19
2001-05-28 11:46:06 51°26.357 2°49.794 150.3 0.4 134.4 18.8
2001-05-28 11:47:05 51°26.349 2°49.795 147.8 0.4 97.5 18.9
2001-05-28 11:48:05 51°26.343 2°49.797 144.7 0.4 85.7 19.2
2001-05-28 11:49:05 51°26.335 2°49.796 142.3 0.5 87.3 18.9
2001-05-28 11:50:05 51°26.328 2°49.795 143.5 0.2 145 19
2001-05-28 11:51:05 51°26.32 2°49.796 146 0.3 157.2 19.1
2001-05-28 11:52:05 51°26.312 2°49.798 144.7 0.5 123.1 19.1
2001-05-28 11:53:05 51°26.302 2°49.8 145.3 0.6 148.6 18.9
2001-05-28 11:54:05 51°26.285 2°49.807 147.2 2.3 164.4 19.6
2001-05-28 11:55:05 51°26.207 2°49.834 163.5 7.8 172.5 19.1
2001-05-28 11:56:06 51°26.038 2°49.864 168 12.1 172.7 19.4
2001-05-28 11:57:05 51°25.833 2°49.782 212 13.9 220.1 19.1
2001-05-28 11:58:05 51°25.718 2°49.461 235 14.5 238 19.1
2001-05-28 11:59:05 51°25.6 2°49.126 239.8 14.6 242.5 19.4
2001-05-28 12:00:06 51°25.486 2°48.783 237.8 14.7 241.6 20.3
2001-05-28 12:01:05 51°25.37 2°48.452 236.8 14.6 240.5 25.3
2001-05-28 12:02:05 51°25.257 2°48.117 238.7 14.4 241.8 24.5
2001-05-28 12:03:06 51°25.141 2°47.775 238.5 14.4 241.2 23.6
2001-05-28 12:04:06 51°25.036 2°47.432 239.3 14.4 242.4 24.5
2001-05-28 12:05:06 51°24.92 2°47.105 234.3 13.8 237.4 24.9
2001-05-28 12:06:05 51°24.834 2°46.771 260.8 13.8 264.9 22.1
2001-05-28 12:07:06 51°24.934 2°46.479 329.5 12.7 328.9 20.9
2001-05-28 12:08:05 51°25.126 2°46.338 336.2 13.2 332.6 21
2001-05-28 12:09:05 51°25.318 2°46.184 339.5 12.9 333.9 21.8
2001-05-28 12:10:05 51°25.513 2°46.046 341.2 13.1 335.6 20.3
2001-05-28 12:11:05 51°25.709 2°45.914 339.7 13 336.5 20
2001-05-28 12:12:05 51°25.905 2°45.786 340.7 13 338 22.1
2001-05-28 12:13:05 51°26.103 2°45.653 339.8 12.8 336.3 21.3
2001-05-28 12:14:06 51°26.301 2°45.511 338.5 13 333.3 23.9
2001-05-28 12:15:05 51°26.492 2°45.376 338 12.7 334.9 24.1
2001-05-28 12:16:05 51°26.686 2°45.237 337.7 13 330.6 24.1
2001-05-28 12:17:05 51°26.883 2°45.105 340.8 12.8 341.4 24.4
2001-05-28 12:18:06 51°27.085 2°44.984 340 13.1 340.2 24.1
2001-05-28 12:19:06 51°27.284 2°44.847 338.2 13 335.8 23.4
2001-05-28 12:20:05 51°27.47 2°44.675 324.2 13.3 321.9 23.3
2001-05-28 12:21:05 51°27.549 2°44.365 265.7 13.2 262.9 22.4
2001-05-28 12:22:05 51°27.435 2°44.057 232.5 13.5 236.2 22.3
2001-05-28 12:23:06 51°27.328 2°43.736 241.3 13.5 244.1 24.9
2001-05-28 12:24:05 51°27.224 2°43.419 237.5 14.2 240.4 23.3
2001-05-28 12:25:06 51°27.105 2°43.097 234.5 14.3 236.9 25
2001-05-28 12:26:06 51°26.978 2°42.778 235.3 14.2 238 27.8
2001-05-28 12:27:05 51°26.854 2°42.467 235.7 14.1 238.2 27.6
2001-05-28 12:28:05 51°26.737 2°42.141 241.2 14.1 242.2 26.6
2001-05-28 12:29:06 51°26.622 2°41.805 241.3 14 242.3 26.3
2001-05-28 12:30:06 51°26.51 2°41.481 240 13.7 240.2 25.5
2001-05-28 12:31:05 51°26.382 2°41.174 218.7 14.4 220 26.2
2001-05-28 12:32:06 51°26.163 2°41.02 194.5 14.1 198.3 25.9
2001-05-28 12:33:05 51°25.938 2°40.976 169 13.9 176.3 24.8
2001-05-28 12:34:05 51°25.712 2°41.055 160.5 13.7 165.7 23.5
2001-05-28 12:35:05 51°25.49 2°41.137 159.8 13.9 162.7 23.3
2001-05-28 12:36:06 51°25.267 2°41.244 155 13.7 159.6 23.7
2001-05-28 12:37:06 51°25.05 2°41.36 157.2 14.4 163.3 21.5
2001-05-28 12:38:05 51°24.839 2°41.485 154.3 13.7 159.9 22.2
2001-05-28 12:39:06 51°24.623 2°41.62 147.2 14 153.8 21.9
2001-05-28 12:40:05 51°24.428 2°41.794 145.7 13.7 154.4 23
2001-05-28 12:41:06 51°24.211 2°41.931 154.5 13.7 160.4 21.8
2001-05-28 12:42:06 51°23.995 2°42.052 153.7 13.7 161.3 22.5
2001-05-28 12:43:06 51°23.769 2°42.081 177.7 13.6 184.1 23.7
2001-05-28 12:44:06 51°23.542 2°42.023 187.7 14 193.2 23.8
2001-05-28 12:45:05 51°23.322 2°41.935 188.5 13.7 194.2 23.8
2001-05-28 12:46:06 51°23.095 2°41.84 188.2 13.8 193.2 24
2001-05-28 12:47:06 51°22.87 2°41.758 190 13.6 195.8 24.1
2001-05-28 12:48:05 51°22.66 2°41.631 207.3 13.6 213.1 25.9
2001-05-28 12:49:05 51°22.467 2°41.429 211 14.2 216.1 23.7
2001-05-28 12:50:06 51°22.275 2°41.203 211.8 14 215.7 25.6
2001-05-28 12:51:05 51°22.086 2°40.993 209.3 14 213.7 24.5
2001-05-28 12:52:06 51°21.886 2°40.784 208.7 14.1 213.6 23.5
2001-05-28 12:53:05 51°21.696 2°40.585 209.8 14.1 214.1 23
2001-05-28 12:54:06 51°21.498 2°40.375 208.8 14.2 213.3 23.7
2001-05-28 12:55:06 51°21.305 2°40.161 211.2 14.1 214.5 23.4
2001-05-28 12:56:05 51°21.121 2°39.945 212.7 14 215.1 22.1
2001-05-28 12:57:06 51°20.924 2°39.731 210.2 14.3 213.9 22.2
2001-05-28 12:58:06 51°20.737 2°39.499 214.3 14.2 218.2 22.1
2001-05-28 12:59:06 51°20.561 2°39.249 221.3 14.1 223.6 21.1
2001-05-28 13:00:05 51°20.403 2°38.979 226.8 13.8 227.2 20.5
2001-05-28 13:01:06 51°20.253 2°38.684 227.2 14.1 228.6 21
2001-05-28 13:02:06 51°20.11 2°38.386 228.7 14.1 230.8 20.7
2001-05-28 13:03:05 51°19.953 2°38.117 220.8 14 223.9 20
2001-05-28 13:04:05 51°19.797 2°37.839 230.5 14.1 233.5 16.5
2001-05-28 13:05:06 51°19.658 2°37.528 231.5 14.4 234.1 18.2
2001-05-28 13:06:06 51°19.501 2°37.25 219.7 14.2 223.6 17.6
2001-05-28 13:07:06 51°19.333 2°36.984 223 14.1 226.8 18.8
2001-05-28 13:08:06 51°19.189 2°36.684 231.8 14.3 235 16.3
2001-05-28 13:09:06 51°19.042 2°36.389 222.3 14 226.7 18.7
2001-05-28 13:10:05 51°18.877 2°36.126 220.7 14.2 225.2 17.3
2001-05-28 13:11:06 51°18.725 2°35.827 231 14.3 235.2 18.8
2001-05-28 13:12:06 51°18.58 2°35.524 224.8 14.3 229.7 21.4
2001-05-28 13:13:06 51°18.411 2°35.255 219.5 14.3 224.9 24.3
2001-05-28 13:14:06 51°18.254 2°34.977 227 14.2 231.8 24.4
2001-05-28 13:15:05 51°18.111 2°34.686 225.2 14 230.2 23.8
2001-05-28 13:16:06 51°17.943 2°34.415 217.7 13.7 222.3 24.1
2001-05-28 13:17:06 51°17.786 2°34.141 225.3 13.8 230.2 25.2
2001-05-28 13:18:05 51°17.641 2°33.852 224 14.2 228.9 22.9
2001-05-28 13:19:06 51°17.468 2°33.592 215.7 14.1 221.5 22.2
2001-05-28 13:20:06 51°17.306 2°33.332 223.8 13.9 229.9 21.4
2001-05-28 13:21:06 51°17.156 2°33.05 223 13.9 227.3 21.5
2001-05-28 13:22:06 51°16.986 2°32.804 215.3 13.9 219.9 21.8
2001-05-28 13:23:06 51°16.82 2°32.553 224.7 13.4 228.5 22.1
2001-05-28 13:24:06 51°16.672 2°32.281 224.3 13.7 228.2 22.2
2001-05-28 13:25:06 51°16.503 2°32.036 217.2 13.7 221.3 23.3
2001-05-28 13:26:06 51°16.343 2°31.787 224.8 13.4 229.4 24.3
2001-05-28 13:27:06 51°16.199 2°31.514 222.8 13.3 226.9 24.7
2001-05-28 13:28:06 51°16.035 2°31.279 215.8 13.4 220.6 23.9
2001-05-28 13:29:05 51°15.873 2°31.046 221.8 13.4 226.5 24.3
2001-05-28 13:30:06 51°15.722 2°30.775 224.7 13.5 229.4 24.6
2001-05-28 13:31:06 51°15.561 2°30.533 215.2 13.4 220.4 24.5
2001-05-28 13:32:06 51°15.394 2°30.296 219.8 13.6 223.6 24.9
2001-05-28 13:33:06 51°15.241 2°30.028 225.8 13.7 228.5 24.6
2001-05-28 13:34:06 51°15.08 2°29.774 217.2 13.9 220.3 24.7
2001-05-28 13:35:06 51°14.908 2°29.541 220.8 13.4 225.6 24.5
2001-05-28 13:36:05 51°14.766 2°29.27 229.7 13.7 232.2 24.7
2001-05-28 13:37:06 51°14.61 2°28.999 218.8 13.8 221.6 24.5
2001-05-28 13:38:06 51°14.429 2°28.785 212 13.6 216.2 24.7
2001-05-28 13:39:06 51°14.273 2°28.526 229.5 13.8 232.1 24.3
2001-05-28 13:40:06 51°14.132 2°28.245 225 13.9 227 23.4
2001-05-28 13:41:06 51°13.954 2°28.018 212.8 13.6 215.3 23.4
2001-05-28 13:42:06 51°13.786 2°27.784 226.7 13.6 228.9 23.6
2001-05-28 13:43:06 51°13.647 2°27.503 228.2 13.5 228.9 23.4
2001-05-28 13:44:06 51°13.475 2°27.27 213 13.4 214.2 23.7
2001-05-28 13:45:06 51°13.309 2°27.033 227 13.5 229.9 23.8
2001-05-28 13:46:06 51°13.168 2°26.75 227 13.5 229 23.2
2001-05-28 13:47:06 51°12.998 2°26.518 214.7 13.6 218.1 23
2001-05-28 13:48:06 51°12.825 2°26.29 223.7 13.5 226.9 23.5
2001-05-28 13:49:06 51°12.683 2°26.015 224.8 13.5 226.8 23.1
2001-05-28 13:50:06 51°12.504 2°25.804 205.5 13.5 208.6 23.7
2001-05-28 13:51:06 51°12.306 2°25.64 204 13.4 207.9 22.9
2001-05-28 13:52:06 51°12.108 2°25.475 203.2 13.5 205.8 22.7
2001-05-28 13:53:06 51°11.891 2°25.397 182.2 13.4 185 22.1
2001-05-28 13:54:06 51°11.666 2°25.431 167.3 13.6 168.3 23.6
2001-05-28 13:55:06 51°11.455 2°25.564 143.5 13.9 145.9 18.3
2001-05-28 13:56:06 51°11.28 2°25.805 133.5 14.4 134.8 10.1
2001-05-28 13:57:06 51°11.124 2°26.086 119 14 121.4 13.9
2001-05-28 13:58:06 51°11.089 2°26.457 83.8 14.3 86.6 18
2001-05-28 13:59:06 51°11.103 2°26.844 84.5 14.4 86.5 20.6
2001-05-28 14:00:06 51°11.095 2°27.22 93 14.2 95.7 19.7
2001-05-28 14:01:06 51°11.096 2°27.596 88.2 14.1 91.2 20.1
2001-05-28 14:02:06 51°11.12 2°27.965 71 14 73.6 16.7
2001-05-28 14:03:06 51°11.201 2°28.309 62.8 14.1 66.3 20.1
2001-05-28 14:04:06 51°11.291 2°28.645 61.7 14.1 65.5 20.4
2001-05-28 14:05:06 51°11.387 2°28.981 59 13.8 62.6 20.6
2001-05-28 14:06:06 51°11.493 2°29.311 61.5 14.1 64.1 21.4
2001-05-28 14:07:06 51°11.593 2°29.649 62.3 13.9 64.9 21
2001-05-28 14:08:06 51°11.692 2°29.982 61 13.9 66.3 20.8
2001-05-28 14:09:06 51°11.803 2°30.303 56 13.9 60.1 20.5
2001-05-28 14:10:06 51°11.911 2°30.626 62.5 13.8 66.7 21
2001-05-28 14:11:06 51°12.012 2°30.954 57.3 13.8 60.4 20.8
2001-05-28 14:12:06 51°12.119 2°31.276 58.7 13.9 62.2 20.8
2001-05-28 14:13:06 51°12.22 2°31.602 60.3 13.6 62.7 19.8
2001-05-28 14:14:06 51°12.32 2°31.933 62.5 13.8 66.4 18.7
2001-05-28 14:15:06 51°12.413 2°32.278 61.8 14.2 64.2 16.7
2001-05-28 14:16:06 51°12.52 2°32.612 59.5 14.2 62.9 15.3
2001-05-28 14:17:06 51°12.617 2°32.955 63.8 14.7 65.9 13.7
2001-05-28 14:18:06 51°12.716 2°33.296 60.2 14.6 63.7 13.7
2001-05-28 14:19:06 51°12.819 2°33.634 61.8 14.2 63.6 12.8
2001-05-28 14:20:06 51°12.927 2°33.973 61.2 14.2 62.4 13.6
2001-05-28 14:21:06 51°13.038 2°34.306 60.2 13.9 64.3 14.5
2001-05-28 14:22:06 51°13.149 2°34.643 61.3 14.2 64 14.8
2001-05-28 14:23:06 51°13.24 2°34.992 67.2 14.1 68.4 15.4
2001-05-28 14:24:06 51°13.343 2°35.338 64.5 14.2 69.3 15.4
2001-05-28 14:25:06 51°13.44 2°35.683 60.8 14.3 64.3 15.7
2001-05-28 14:26:06 51°13.546 2°36.019 62.3 14.5 63.5 16.1
2001-05-28 14:27:06 51°13.656 2°36.357 61 14.7 62.3 17.6
2001-05-28 14:28:06 51°13.752 2°36.7 66.2 14.2 70.4 17.9
2001-05-28 14:29:06 51°13.832 2°37.053 67.7 13.9 70.8 18.4
2001-05-28 14:30:06 51°13.928 2°37.4 62.3 13.8 65.2 18.2
2001-05-28 14:31:06 51°14.02 2°37.742 64.7 13.8 67.8 17.2
2001-05-28 14:32:06 51°14.107 2°38.083 73.7 14.1 78.3 16.1
2001-05-28 14:33:06 51°14.141 2°38.45 83.2 13.9 86.3 15.3
2001-05-28 14:34:06 51°14.137 2°38.818 95.7 14.2 99.9 9.7
2001-05-28 14:35:06 51°14.027 2°39.137 140.3 13.4 142.3 11.8
2001-05-28 14:36:06 51°13.837 2°39.097 224.2 11.8 223.3 12.9
2001-05-28 14:37:06 51°13.683 2°38.875 219.5 12.7 219 12.8
2001-05-28 14:38:06 51°13.523 2°38.663 218.2 12.6 216.3 13.1
2001-05-28 14:39:06 51°13.357 2°38.463 219 12.3 218 12.7
2001-05-28 14:40:06 51°13.197 2°38.275 217.5 12 217.1 12.6
2001-05-28 14:41:06 51°13.031 2°38.095 210.8 12.1 210.4 12.2
2001-05-28 14:42:06 51°12.868 2°37.91 218.8 12.2 218.6 11.5
2001-05-28 14:43:06 51°12.704 2°37.723 214.8 12 216.4 11.1
2001-05-28 14:44:06 51°12.543 2°37.535 214.7 12 211.6 10.4
2001-05-28 14:45:06 51°12.377 2°37.36 213.5 12.1 212 9.9
2001-05-28 14:46:06 51°12.207 2°37.187 217.3 12 215.6 9.4
2001-05-28 14:47:06 51°12.032 2°37.028 213.7 11.9 214.2 9.5
2001-05-28 14:48:06 51°11.866 2°36.847 212.3 12.3 212.1 9.3
2001-05-28 14:49:06 51°11.712 2°36.647 220.8 12.2 220.8 9.3
2001-05-28 14:50:06 51°11.544 2°36.467 211.3 12.1 210.1 9.2
2001-05-28 14:51:06 51°11.363 2°36.321 204.8 12 203.8 9.6
2001-05-28 14:52:06 51°11.179 2°36.187 202.5 12.1 202.1 9.5
2001-05-28 14:53:06 51°10.992 2°36.063 204 12.2 201.9 9.6
2001-05-28 14:54:06 51°10.803 2°35.951 196.5 12 196.2 9.5
2001-05-28 14:55:06 51°10.606 2°35.876 189.7 12.3 188 9.5
2001-05-28 14:56:06 51°10.406 2°35.816 196.8 12.3 193.2 9.9
2001-05-28 14:57:06 51°10.201 2°35.804 178 12.6 173.9 9.9
2001-05-28 14:58:06 51°10.011 2°35.949 136.8 13.9 130.2 16.5
2001-05-28 14:59:06 51°9.907 2°36.289 117.5 14.3 111.1 16.3
2001-05-28 15:00:06 51°9.827 2°36.654 114.7 14.7 113 16
2001-05-28 15:01:06 51°9.75 2°37.022 107.7 14.8 105 15.6
2001-05-28 15:02:06 51°9.727 2°37.417 83.8 15.2 83.4 15.1
2001-05-28 15:03:06 51°9.754 2°37.813 82.7 15.4 81.9 14.1
2001-05-28 15:04:06 51°9.794 2°38.21 80.8 15 81.7 13.1
2001-05-28 15:05:06 51°9.837 2°38.602 70.3 14.9 72 12
2001-05-28 15:06:06 51°9.917 2°38.977 70.8 15.2 72.4 11.5
2001-05-28 15:07:06 51°9.994 2°39.354 69.2 14.9 70 11.1
2001-05-28 15:08:06 51°10.076 2°39.727 67.7 14.9 70 10.8
2001-05-28 15:09:06 51°10.162 2°40.099 66.7 15.1 69.3 10.7
2001-05-28 15:10:06 51°10.25 2°40.479 65.8 15.5 69.6 10.6
2001-05-28 15:11:06 51°10.326 2°40.871 69.5 15.5 72 10.5
2001-05-28 15:12:06 51°10.412 2°41.261 67.8 15.5 70.8 10.4
2001-05-28 15:13:06 51°10.5 2°41.647 66 15.7 67.5 10.3
2001-05-28 15:14:06 51°10.591 2°42.031 65.8 15.6 69.2 10.4
2001-05-28 15:15:06 51°10.672 2°42.423 69.8 15.9 70.5 10.2
2001-05-28 15:16:06 51°10.748 2°42.815 68.8 15.5 71.7 10.2
2001-05-28 15:17:06 51°10.839 2°43.197 63.5 15.3 67.8 10.2
2001-05-28 15:18:06 51°10.924 2°43.579 67.7 15.5 69 10.1
2001-05-28 15:19:06 51°11.021 2°43.955 62.3 15.3 66 10.3
2001-05-28 15:20:06 51°11.121 2°44.324 62.3 15.1 66.6 10.4
2001-05-28 15:21:06 51°11.228 2°44.694 60 15.3 63.8 10.6
2001-05-28 15:22:06 51°11.337 2°45.06 61.3 15.4 64.7 10.6
2001-05-28 15:23:06 51°11.451 2°45.424 63.2 15.3 65.3 11
2001-05-28 15:24:06 51°11.568 2°45.783 59.7 15.4 63.6 11.2
2001-05-28 15:25:06 51°11.684 2°46.147 60.7 15.4 63.5 11.4
2001-05-28 15:26:06 51°11.802 2°46.502 60.8 15 65.4 11.6
2001-05-28 15:27:06 51°11.913 2°46.861 61.3 15.5 63.5 11.6
2001-05-28 15:28:06 51°12.025 2°47.224 64.8 15.4 65.1 11.4
2001-05-28 15:29:06 51°12.138 2°47.587 58.8 15.5 62.2 11.3
2001-05-28 15:30:06 51°12.258 2°47.953 61.7 15.8 63.9 11.2
2001-05-28 15:31:06 51°12.38 2°48.311 58.2 15.6 61.8 10.9
2001-05-28 15:32:06 51°12.513 2°48.663 53.7 15 59.3 11.1
2001-05-28 15:33:06 51°12.649 2°49.007 56.5 15.6 58.7 10.9
2001-05-28 15:34:06 51°12.784 2°49.353 57.5 15.3 60.5 10.7
2001-05-28 15:35:06 51°12.909 2°49.71 58.5 15.5 61.4 10.6
2001-05-28 15:36:06 51°13.037 2°50.064 60.7 15.7 62.1 10.4
2001-05-28 15:37:06 51°13.159 2°50.426 61 15.8 62.7 10.2
2001-05-28 15:38:06 51°13.281 2°50.789 60.5 15.8 60.6 10.2
2001-05-28 15:39:06 51°13.405 2°51.153 60.8 15.4 61.4 10
2001-05-28 15:40:06 51°13.535 2°51.504 57 15.1 60.3 10
2001-05-28 15:41:06 51°13.662 2°51.858 59 15.3 61.1 9.9
2001-05-28 15:42:06 51°13.785 2°52.218 59 15.2 62.1 9.8
2001-05-28 15:43:06 51°13.908 2°52.577 61.3 15.1 62 9.8
2001-05-28 15:44:06 51°14.029 2°52.933 57.8 15.2 60.6 9.5
2001-05-28 15:45:06 51°14.123 2°53.307 71.8 15.1 73.6 8.9
2001-05-28 15:46:06 51°14.2 2°53.683 71.2 14.7 72.1 8.5
2001-05-28 15:47:06 51°14.272 2°54.065 77.2 15.6 76.5 8
2001-05-28 15:48:06 51°14.323 2°54.461 81 14.9 78.7 8
2001-05-28 15:49:06 51°14.352 2°54.848 88.3 14.5 89 8.6
2001-05-28 15:50:06 51°14.301 2°55.18 125 11 129.2 8.9
2001-05-28 15:51:06 51°14.192 2°55.347 140.2 7.6 142.1 8.7
2001-05-28 15:52:06 51°14.097 2°55.435 154.5 6.1 156.2 8.7
2001-05-28 15:53:06 51°14.008 2°55.499 154.5 5.9 153.6 8.4
2001-05-28 15:54:06 51°13.927 2°55.556 159.7 4.8 159.1 9
2001-05-28 15:55:06 51°13.857 2°55.6 157.2 4.3 158.2 8.7
2001-05-28 15:56:06 51°13.794 2°55.649 146.2 4.1 145.4 9
2001-05-28 15:57:06 51°13.747 2°55.719 131.7 3.5 132.1 9.2
2001-05-28 15:58:06 51°13.719 2°55.786 118 2.8 117.2 7.9
2001-05-28 15:59:06 51°13.701 2°55.849 115.5 2.5 115.1 7.9
2001-05-28 16:00:06 51°13.684 2°55.905 117.3 2.2 117.3 6.6
2001-05-28 16:01:06 51°13.677 2°55.926 127.2 0.2 264.1 5.8
2001-05-28 16:02:06 51°13.678 2°55.925 130.3 0.1 71.9 5.8
2001-05-28 16:03:06 51°13.679 2°55.924 127.3 0.2 59.5 5.7
2001-05-28 16:04:08 51°13.678 2°55.924 125.8   265.5 5.8
2001-05-28 16:05:11 51°13.678 2°55.923 126   355.7 5.8
2001-05-28 16:06:20 51°13.678 2°55.923 125.8   352.5 5.8